sensor_id;sensor_type;location;lat;lon;timestamp;pressure;altitude;pressure_sealevel;temperature;humidity
5679;BME280;2862;52.560;13.566;2023-12-22T00:00:05;97592.03;;;4.95;90.98
5679;BME280;2862;52.560;13.566;2023-12-22T00:10:09;97586.28;;;4.83;88.18
5679;BME280;2862;52.560;13.566;2023-12-22T00:20:14;97604.19;;;4.65;85.95
5679;BME280;2862;52.560;13.566;2023-12-22T00:30:16;97630.44;;;4.58;83.41
5679;BME280;2862;52.560;13.566;2023-12-22T00:40:21;97641.53;;;4.62;81.66
5679;BME280;2862;52.560;13.566;2023-12-22T00:50:24;97670.13;;;4.58;80.25
5679;BME280;2862;52.560;13.566;2023-12-22T01:00:28;97679.25;;;4.64;81.03
5679;BME280;2862;52.560;13.566;2023-12-22T01:10:31;97687.03;;;4.73;82.27
5679;BME280;2862;52.560;13.566;2023-12-22T01:20:36;97698.91;;;4.69;82.57
5679;BME280;2862;52.560;13.566;2023-12-22T01:30:39;97710.69;;;4.67;83.82
5679;BME280;2862;52.560;13.566;2023-12-22T01:40:43;97736.94;;;4.52;88.41
5679;BME280;2862;52.560;13.566;2023-12-22T01:51:02;97734.25;;;4.36;91.80
5679;BME280;2862;52.560;13.566;2023-12-22T02:02:12;97761.06;;;4.33;93.10
5679;BME280;2862;52.560;13.566;2023-12-22T02:46:25;97775.31;;;3.97;93.99
5679;BME280;2862;52.560;13.566;2023-12-22T02:57:58;97779.44;;;4.00;93.90
5679;BME280;2862;52.560;13.566;2023-12-22T03:09:02;97769.13;;;3.89;94.05
5679;BME280;2862;52.560;13.566;2023-12-22T03:53:39;97777.97;;;3.71;97.31
5679;BME280;2862;52.560;13.566;2023-12-22T04:03:42;97785.28;;;3.78;96.99
5679;BME280;2862;52.560;13.566;2023-12-22T04:13:47;97775.75;;;3.85;96.61
5679;BME280;2862;52.560;13.566;2023-12-22T04:23:50;97779.25;;;3.93;97.25
5679;BME280;2862;52.560;13.566;2023-12-22T04:33:54;97781.16;;;3.83;99.43
5679;BME280;2862;52.560;13.566;2023-12-22T04:44:00;97784.78;;;3.74;100.00
5679;BME280;2862;52.560;13.566;2023-12-22T04:54:06;97789.59;;;3.79;100.00
5679;BME280;2862;52.560;13.566;2023-12-22T05:04:09;97769.66;;;3.58;100.00
5679;BME280;2862;52.560;13.566;2023-12-22T05:14:13;97757.81;;;3.62;100.00
5679;BME280;2862;52.560;13.566;2023-12-22T05:24:16;97766.44;;;3.46;100.00
5679;BME280;2862;52.560;13.566;2023-12-22T05:34:21;97768.81;;;3.32;100.00
5679;BME280;2862;52.560;13.566;2023-12-22T05:44:24;97783.84;;;3.31;100.00
5679;BME280;2862;52.560;13.566;2023-12-22T05:54:32;97779.34;;;3.24;100.00
5679;BME280;2862;52.560;13.566;2023-12-22T06:04:35;97766.13;;;3.24;100.00
5679;BME280;2862;52.560;13.566;2023-12-22T06:14:40;97791.09;;;3.29;100.00
5679;BME280;2862;52.560;13.566;2023-12-22T06:24:43;97788.81;;;3.34;100.00
5679;BME280;2862;52.560;13.566;2023-12-22T06:34:47;97787.47;;;3.30;98.18
5679;BME280;2862;52.560;13.566;2023-12-22T06:44:51;97781.97;;;3.24;95.71
5679;BME280;2862;52.560;13.566;2023-12-22T06:54:55;97802.53;;;3.38;96.55
5679;BME280;2862;52.560;13.566;2023-12-22T07:05:30;97820.09;;;3.47;100.00
5679;BME280;2862;52.560;13.566;2023-12-22T07:15:34;97858.25;;;4.31;100.00
5679;BME280;2862;52.560;13.566;2023-12-22T07:25:37;97852.28;;;2.89;100.00
5679;BME280;2862;52.560;13.566;2023-12-22T07:35:42;97850.16;;;2.75;100.00
5679;BME280;2862;52.560;13.566;2023-12-22T07:45:45;97842.09;;;2.94;100.00
5679;BME280;2862;52.560;13.566;2023-12-22T07:55:50;97864.72;;;3.14;100.00
5679;BME280;2862;52.560;13.566;2023-12-22T08:05:53;97866.00;;;3.28;100.00
5679;BME280;2862;52.560;13.566;2023-12-22T08:15:58;97867.44;;;3.40;97.69
5679;BME280;2862;52.560;13.566;2023-12-22T08:26:02;97878.66;;;3.42;97.26
5679;BME280;2862;52.560;13.566;2023-12-22T08:36:06;97887.84;;;3.74;93.22
5679;BME280;2862;52.560;13.566;2023-12-22T08:46:09;97905.03;;;4.30;91.96
5679;BME280;2862;52.560;13.566;2023-12-22T08:56:15;97920.75;;;4.66;88.59
5679;BME280;2862;52.560;13.566;2023-12-22T09:06:21;97949.31;;;4.62;87.40
5679;BME280;2862;52.560;13.566;2023-12-22T09:16:27;97952.31;;;4.67;86.69
5679;BME280;2862;52.560;13.566;2023-12-22T09:26:30;97979.53;;;4.51;86.39
5679;BME280;2862;52.560;13.566;2023-12-22T09:36:35;97982.38;;;4.58;84.86
5679;BME280;2862;52.560;13.566;2023-12-22T09:46:39;98011.22;;;4.69;81.23
5679;BME280;2862;52.560;13.566;2023-12-22T09:56:46;98020.03;;;4.78;81.47
5679;BME280;2862;52.560;13.566;2023-12-22T10:06:50;98020.22;;;4.76;79.83
5679;BME280;2862;52.560;13.566;2023-12-22T10:16:55;98039.69;;;4.75;79.21
5679;BME280;2862;52.560;13.566;2023-12-22T10:26:58;98035.38;;;5.00;78.99
5679;BME280;2862;52.560;13.566;2023-12-22T10:37:04;98041.47;;;5.35;82.98
5679;BME280;2862;52.560;13.566;2023-12-22T10:47:07;98028.97;;;5.19;75.53
5679;BME280;2862;52.560;13.566;2023-12-22T10:57:12;98036.53;;;5.48;73.97
5679;BME280;2862;52.560;13.566;2023-12-22T11:07:16;98057.00;;;5.80;74.25
5679;BME280;2862;52.560;13.566;2023-12-22T11:17:23;98074.28;;;5.50;73.48
5679;BME280;2862;52.560;13.566;2023-12-22T11:27:27;98069.00;;;5.50;73.71
5679;BME280;2862;52.560;13.566;2023-12-22T11:37:34;98054.94;;;5.58;72.17
5679;BME280;2862;52.560;13.566;2023-12-22T11:47:38;98062.03;;;5.41;72.14
5679;BME280;2862;52.560;13.566;2023-12-22T11:57:44;98069.63;;;5.36;71.53
5679;BME280;2862;52.560;13.566;2023-12-22T12:07:48;98078.81;;;5.58;70.16
5679;BME280;2862;52.560;13.566;2023-12-22T12:17:53;98067.69;;;5.54;72.04
5679;BME280;2862;52.560;13.566;2023-12-22T12:28:03;98090.06;;;5.52;72.52
5679;BME280;2862;52.560;13.566;2023-12-22T12:38:08;98084.69;;;5.36;72.37
5679;BME280;2862;52.560;13.566;2023-12-22T12:48:15;98092.34;;;5.47;74.12
5679;BME280;2862;52.560;13.566;2023-12-22T12:58:21;98087.50;;;5.34;73.04
5679;BME280;2862;52.560;13.566;2023-12-22T13:08:24;98090.38;;;5.15;76.60
5679;BME280;2862;52.560;13.566;2023-12-22T13:18:34;98084.28;;;4.88;75.88
5679;BME280;2862;52.560;13.566;2023-12-22T13:28:38;98083.41;;;4.79;76.76
5679;BME280;2862;52.560;13.566;2023-12-22T13:38:46;98083.31;;;4.89;78.13
5679;BME280;2862;52.560;13.566;2023-12-22T13:48:53;98112.44;;;4.89;76.04
5679;BME280;2862;52.560;13.566;2023-12-22T13:58:58;98119.84;;;4.86;76.52
5679;BME280;2862;52.560;13.566;2023-12-22T14:09:04;98127.50;;;4.89;74.94
5679;BME280;2862;52.560;13.566;2023-12-22T14:19:08;98115.50;;;4.76;76.75
5679;BME280;2862;52.560;13.566;2023-12-22T14:29:11;98130.06;;;4.55;75.45
5679;BME280;2862;52.560;13.566;2023-12-22T14:39:15;98143.34;;;4.45;78.65
5679;BME280;2862;52.560;13.566;2023-12-22T14:49:18;98153.88;;;4.37;84.14
5679;BME280;2862;52.560;13.566;2023-12-22T14:59:23;98157.97;;;4.13;88.14
5679;BME280;2862;52.560;13.566;2023-12-22T15:09:26;98165.72;;;3.97;88.79
5679;BME280;2862;52.560;13.566;2023-12-22T15:19:30;98169.56;;;3.85;86.13
5679;BME280;2862;52.560;13.566;2023-12-22T15:29:34;98181.75;;;3.68;86.11
5679;BME280;2862;52.560;13.566;2023-12-22T15:39:37;98184.22;;;3.69;87.60
5679;BME280;2862;52.560;13.566;2023-12-22T15:49:41;98206.81;;;3.54;89.56
5679;BME280;2862;52.560;13.566;2023-12-22T15:59:46;98210.16;;;3.56;91.43
5679;BME280;2862;52.560;13.566;2023-12-22T16:09:49;98193.22;;;3.49;93.17
5679;BME280;2862;52.560;13.566;2023-12-22T16:19:54;98217.94;;;3.58;93.77
5679;BME280;2862;52.560;13.566;2023-12-22T16:29:57;98200.75;;;3.71;92.40
5679;BME280;2862;52.560;13.566;2023-12-22T16:40:01;98208.22;;;3.49;93.35
5679;BME280;2862;52.560;13.566;2023-12-22T16:50:08;98213.25;;;3.42;92.39
5679;BME280;2862;52.560;13.566;2023-12-22T17:00:13;98211.84;;;3.47;91.07
5679;BME280;2862;52.560;13.566;2023-12-22T17:10:16;98217.78;;;3.59;91.16
5679;BME280;2862;52.560;13.566;2023-12-22T17:20:20;98201.25;;;3.57;90.46
5679;BME280;2862;52.560;13.566;2023-12-22T17:30:23;98216.97;;;3.59;91.01
5679;BME280;2862;52.560;13.566;2023-12-22T17:40:30;98208.03;;;3.60;91.22
5679;BME280;2862;52.560;13.566;2023-12-22T17:50:33;98213.50;;;3.49;91.52
5679;BME280;2862;52.560;13.566;2023-12-22T18:00:37;98232.97;;;3.47;90.92
5679;BME280;2862;52.560;13.566;2023-12-22T18:10:40;98241.22;;;3.35;89.29
5679;BME280;2862;52.560;13.566;2023-12-22T18:20:45;98246.22;;;3.38;89.11
5679;BME280;2862;52.560;13.566;2023-12-22T18:30:47;98253.31;;;3.37;88.23
5679;BME280;2862;52.560;13.566;2023-12-22T18:40:52;98260.41;;;3.37;90.05
5679;BME280;2862;52.560;13.566;2023-12-22T18:50:55;98245.25;;;3.39;91.91
5679;BME280;2862;52.560;13.566;2023-12-22T19:00:59;98271.78;;;3.47;92.73
5679;BME280;2862;52.560;13.566;2023-12-22T19:11:02;98270.22;;;3.54;92.01
5679;BME280;2862;52.560;13.566;2023-12-22T19:21:06;98265.34;;;3.59;92.31
5679;BME280;2862;52.560;13.566;2023-12-22T19:31:10;98278.56;;;3.59;92.16
5679;BME280;2862;52.560;13.566;2023-12-22T19:41:14;98294.97;;;3.63;91.91
5679;BME280;2862;52.560;13.566;2023-12-22T19:51:17;98293.41;;;3.60;91.72
5679;BME280;2862;52.560;13.566;2023-12-22T20:01:22;98288.84;;;3.62;93.20
5679;BME280;2862;52.560;13.566;2023-12-22T20:11:25;98279.63;;;3.66;92.90
5679;BME280;2862;52.560;13.566;2023-12-22T20:21:30;98270.63;;;3.59;92.43
5679;BME280;2862;52.560;13.566;2023-12-22T20:31:33;98293.16;;;3.63;91.71
5679;BME280;2862;52.560;13.566;2023-12-22T20:41:37;98303.16;;;3.69;90.32
5679;BME280;2862;52.560;13.566;2023-12-22T20:51:41;98297.19;;;3.67;90.96
5679;BME280;2862;52.560;13.566;2023-12-22T21:01:46;98324.56;;;3.66;91.34
5679;BME280;2862;52.560;13.566;2023-12-22T21:11:50;98387.03;;;3.48;95.06
5679;BME280;2862;52.560;13.566;2023-12-22T21:21:54;98348.41;;;3.08;94.88
5679;BME280;2862;52.560;13.566;2023-12-22T21:31:57;98364.38;;;2.97;97.96
5679;BME280;2862;52.560;13.566;2023-12-22T21:42:02;98360.53;;;2.42;100.00
5679;BME280;2862;52.560;13.566;2023-12-22T21:52:06;98377.00;;;2.34;100.00
5679;BME280;2862;52.560;13.566;2023-12-22T22:02:11;98374.53;;;2.02;100.00
5679;BME280;2862;52.560;13.566;2023-12-22T22:12:13;98369.28;;;1.81;100.00
5679;BME280;2862;52.560;13.566;2023-12-22T22:22:18;98393.59;;;1.84;100.00
5679;BME280;2862;52.560;13.566;2023-12-22T22:32:22;98410.84;;;1.98;100.00
5679;BME280;2862;52.560;13.566;2023-12-22T22:42:26;98437.94;;;1.79;100.00
5679;BME280;2862;52.560;13.566;2023-12-22T22:52:29;98446.88;;;1.67;100.00
5679;BME280;2862;52.560;13.566;2023-12-22T23:02:33;98481.09;;;1.88;100.00
5679;BME280;2862;52.560;13.566;2023-12-22T23:12:36;98484.34;;;2.12;100.00
5679;BME280;2862;52.560;13.566;2023-12-22T23:22:41;98501.88;;;2.02;100.00
5679;BME280;2862;52.560;13.566;2023-12-22T23:32:45;98515.09;;;2.12;100.00
5679;BME280;2862;52.560;13.566;2023-12-22T23:42:49;98535.13;;;2.15;100.00
5679;BME280;2862;52.560;13.566;2023-12-22T23:52:52;98553.06;;;2.42;100.00
